ダラス/フォートワース の空港の天気 - METARとTAF

ダラス・フォートワース国際空港 ( KDFW / DFW ) - アメリカ テキサス州ダラス & フォートワース
飛行場実況気象(Metar)
観測時間06/17 13:53 CDT (06/17 18:53 UTC)
風向・風速静穏 0m/s
視程10km以上
天気現象
全天の4割程度の雲 雲底高度 1070m
全天の8割程度の雲 雲底高度 9140m
気温27.2℃
湿度58%
気圧1012.6hPa
METARKDFW 171853Z 00000KT 10SM SCT035 BKN300 27/18 A2993 RMK AO2 SLP126 T02720183
過去の天気等 Google飛行場航空写真 Wunderground天気予報

過去48時間のMETAR

飛行場予報(TAF)
発表時間: 6/17 12:22 CDT (6/17 17:22 UTC)
予報対象時間: 17日13時 CDT ~ 18日19時 CDT
風向・風速東南東 2m/s
視程10km以上
全天の4割程度の雲 雲底高度 610m
全天の8割程度の雲 雲底高度 9140m
17日13時 CDT ~ 17日14時 CDT に一時的に
全天の8割程度の雲 雲底高度 760m
17日22時 CDT から
風向・風速南 3m/s
視程10km以上
全天の4割程度の雲 雲底高度 7620m
KDFW 171722Z 1718/1824 12004KT P6SM SCT020 BKN300
TEMPO 1718/1719 BKN025
FM180300 17006KT P6SM SCT250